Fayette, Maine
Current Conditions -  °F | °C
As of 9:53 AM on Thursday 30 Oct 2014 (Local Time) from KAUG Reporting Station
Overcast Overcast  
Wind Chill: 44°   Ceiling: 8500
Heat Index: 46°   Visibility: 10mi
Dew Point: 40°   Wind: 5mph
Humidity: 79%   Direction: 290°WNW
Pressure: 29.89"   Gusts: NA
Location:  44.4361°N, 70.0741°W
Report Text: KAUG 301353Z AUTO 29004KT 10SM OVC085 08/04 A2989 RMK AO2 SLP123 T00780044
Loading
Personal Weather Stations






























Interactive Weather Map
Tropical Storm Tracking
New forecast layout! Learn more

10-Day Weather Forecast

Advertisements
Track Severe Weather on mobile